Latest Coastal Weather Observations for Larapuna (Eddystone Point)

IDT60701

Issued at 4:52 am EST Thursday 3 September 2026 (issued every 10 minutes, with the page automatically refreshed every 10 minutes)

About coastal observations | Map of coastal stations | Coastal observations for TAS | Marine services | Other Formats
Station Details ID: 092045 Name: LARAPUNA (EDDYSTONE POINT) Lat: -40.99 Lon: 148.35 Height: 19.7 m
Data from the previous 72 hours. | See also: Recent months at Larapuna (Eddystone Point)
Date/Time
EST
Wind Sea
Height
m
Swell Vis
km
Cloud Weather Temp
°C
Press
MSL
hPa
Rain since
9am
mm
Dir  Spd
kts
Gust
kts
Height
m
Period
s
Dir
03/04:32am NW 24 38 - - - - - - - 12.3 1000.2 1.0
03/04:30am NW 24 33 - - - - - - - 12.3 1000.3 1.0
03/04:28am NW 25 33 - - - - - - - 12.2 1000.3 1.0
03/04:10am NW 22 32 - - - - - - - 12.1 1000.4 1.0
03/04:00am NW 25 32 - - - - - - - 12.0 1000.5 1.0
03/03:56am NW 25 32 - - - - - - - 12.0 1000.6 1.0
03/03:30am NW 25 41 - - - - - - - 12.5 1000.9 1.0
03/03:05am NW 22 32 - - - - - - - 12.6 1001.4 1.0
03/03:00am NW 24 32 - - - - - - - 12.6 1001.6 1.0
03/02:43am NW 23 30 - - - - - - - 12.6 1001.8 1.0
03/02:30am NW 24 34 - - - - - - - 12.5 1002.0 1.0
03/02:21am NW 23 33 - - - - - - - 12.5 1002.3 1.0
03/02:14am NW 23 31 - - - - - - - 12.4 1002.4 1.0
03/02:04am NW 22 32 - - - - - - - 12.3 1002.6 1.0
03/02:01am NW 23 29 - - - - - - - 12.3 1002.6 1.0
03/02:00am NW 23 29 - - - - - - - 12.3 1002.6 1.0
03/01:41am NW 23 33 - - - - - - - 12.1 1002.9 1.0
03/01:30am NW 22 28 - - - - - - - 12.0 1003.0 1.0
03/01:22am NW 23 32 - - - - - - - 12.0 1003.0 1.0
03/01:00am NW 27 43 - - - - - - - 12.0 1003.0 1.0
03/12:43am NW 24 34 - - - - - - - 11.9 1003.3 1.0
03/12:42am NW 24 33 - - - - - - - 11.9 1003.4 1.0
03/12:31am NW 23 33 - - - - - - - 12.0 1003.5 0.8
03/12:30am NW 23 31 - - - - - - - 12.0 1003.5 0.8
03/12:25am NW 22 30 - - - - - - - 11.9 1003.6 0.8
03/12:09am NW 19 29 - - - - - - - 11.8 1004.0 0.8
03/12:01am NW 18 27 - - - - - - - 11.7 1004.3 0.8
03/12:00am NW 18 27 - - - - - - - 11.7 1004.3 0.8
 
Date/Time
EST
Wind Sea
Height
m
Swell Vis
km
Cloud Weather Temp
°C
Press
MSL
hPa
Rain since
9am
mm
Dir  Spd
kts
Gust
kts
Height
m
Period
s
Dir
02/11:32pm NW 17 29 - - - - - - - 11.4 1004.7 0.8
02/11:30pm NW 17 24 - - - - - - - 11.4 1004.8 0.8
02/11:00pm NW 18 23 - - - - - - - 11.3 1005.3 0.8
02/10:30pm NW 15 21 - - - - - - - 10.9 1006.0 0.8
02/10:00pm NW 13 23 - - - - - - - 11.1 1006.7 0.6
02/09:30pm WNW 16 23 - - - - - - - 11.6 1006.7 0.2
02/09:00pm NW 15 19 - - - - - - - 11.5 1006.8 0.0
02/08:30pm NW 15 19 - - - - - - - 11.1 1007.0 0.0
02/08:00pm NW 18 23 - - - - - - - 10.9 1006.8 0.0
02/07:31pm NW 22 31 - - - - - - - 11.0 1006.7 0.0
02/07:30pm NW 22 31 - - - - - - - 11.0 1006.7 0.0
02/07:21pm WNW 23 33 - - - - - - - 11.2 1006.6 0.0
02/07:12pm WNW 25 34 - - - - - - - 11.1 1006.2 0.0
02/07:00pm WNW 26 36 - - - - - - - 11.0 1005.9 0.0
02/06:49pm NW 24 34 - - - - - - - 11.4 1006.0 0.0
02/06:46pm NW 25 32 - - - - - - - 11.4 1005.8 0.0
02/06:36pm NW 25 35 - - - - - - - 11.7 1005.7 0.0
02/06:35pm NW 26 35 - - - - - - - 11.7 1005.7 0.0
02/06:30pm NW 26 35 - - - - - - - 11.7 1005.7 0.0
02/06:00pm NW 26 37 - - - - - - - 12.3 1005.5 0.0
02/05:36pm WNW 25 37 - - - - - - - 12.3 1005.6 0.0
02/05:35pm WNW 24 32 - - - - - - - 12.3 1005.6 0.0
02/05:30pm WNW 24 31 - - - - - - - 12.3 1005.6 0.0
02/05:00pm WNW 21 32 - - - - - - - 12.8 1005.7 0.0
02/04:30pm WNW 20 32 - - - - - - - 13.6 1005.7 0.0
02/04:00pm W 15 30 - - - - - - - 14.4 1005.7 0.0
02/03:59pm W 14 30 - - - - - - - 14.2 1005.7 0.0
02/03:36pm WNW 18 28 - - - - - - - 14.2 1005.9 0.0
02/03:34pm WNW 18 27 - - - - - - - 14.5 1006.0 0.0
02/03:30pm WNW 18 25 - - - - - - - 14.6 1005.9 0.0
02/03:00pm WNW 22 33 - - - - - - - 14.6 1006.0 0.0
02/02:30pm WNW 21 36 - - - - - - - 15.0 1006.3 0.0
02/02:00pm WNW 27 36 - - - - - - - 14.3 1006.3 0.0
02/01:30pm WNW 24 37 - - - - - - - 15.2 1006.3 0.0
02/01:00pm WNW 21 33 - - - - - - - 14.8 1007.0 0.0
02/12:30pm WNW 26 42 - - - - - - - 15.2 1007.1 0.0
02/12:21pm WNW 25 37 - - - - - - - 15.1 1007.1 0.0
02/12:00pm W 20 33 - - - - - - - 15.5 1007.8 0.0
02/11:30am W 23 34 - - - - - - - 14.6 1008.2 0.0
02/11:00am W 26 37 - - - - - - - 14.3 1008.4 0.0
02/10:59am W 26 37 - - - - - - - 14.6 1008.4 0.0
02/10:49am W 25 43 - - - - - - - 14.2 1008.4 0.0
02/10:30am W 22 33 - - - - - - - 14.2 1008.7 0.0
02/10:00am W 22 31 - - - - - - - 14.3 1008.6 0.0
02/09:30am WNW 22 32 - - - - - - - 13.1 1008.5 0.0
02/09:25am WNW 19 29 - - - - - - - 13.2 1008.6 0.0
02/09:07am WNW 20 27 - - - - - - - 12.8 1008.6 0.0
02/09:00am WNW 18 26 - - - - - - - 12.2 1008.6 0.6
02/08:53am WNW 15 26 - - - - - - - 12.4 1008.6 0.6
02/08:36am WNW 16 23 - - - - - - - 11.9 1008.8 0.6
02/08:30am WNW 16 25 - - - - - - - 11.8 1008.8 0.6
02/08:26am WNW 16 25 - - - - - - - 11.7 1008.8 0.6
02/08:00am WNW 11 14 - - - - - - - 11.0 1008.9 0.6
02/07:30am WNW 5 7 - - - - - - - 9.9 1008.8 0.6
02/07:00am W 5 8 - - - - - - - 8.4 1008.4 0.6
02/06:30am W 7 9 - - - - - - - 8.6 1007.8 0.6
02/06:00am W 9 16 - - - - - - - 9.0 1007.4 0.6
02/05:30am W 14 20 - - - - - - - 9.5 1006.8 0.6
02/05:00am W 11 16 - - - - - - - 9.8 1006.6 0.6
02/04:55am WNW 11 18 - - - - - - - 9.7 1006.5 0.6
02/04:30am WNW 21 29 - - - - - - - 10.6 1005.6 0.6
02/04:00am WNW 20 29 - - - - - - - 11.1 1004.8 0.6
02/03:33am WNW 18 28 - - - - - - - 11.4 1004.8 0.6
02/03:30am WNW 17 25 - - - - - - - 11.5 1004.9 0.6
02/03:22am WNW 19 27 - - - - - - - 11.6 1005.0 0.6
02/03:06am WNW 15 26 - - - - - - - 11.7 1005.2 0.6
02/03:00am WNW 16 23 - - - - - - - 11.9 1005.3 0.6
02/02:48am WNW 15 24 - - - - - - - 12.1 1005.4 0.6
02/02:38am WNW 15 25 - - - - - - - 12.3 1005.3 0.6
02/02:30am WNW 16 25 - - - - - - - 12.4 1005.4 0.6
02/02:25am WNW 16 24 - - - - - - - 12.6 1005.4 0.6
02/02:15am WNW 17 27 - - - - - - - 12.9 1005.6 0.6
02/02:00am WNW 18 24 - - - - - - - 13.4 1005.7 0.6
02/01:46am WNW 17 24 - - - - - - - 13.6 1005.6 0.6
02/01:30am NW 16 25 - - - - - - - 13.8 1005.8 0.6
02/01:00am NW 19 32 - - - - - - - 13.9 1005.9 0.6
02/12:54am NW 18 28 - - - - - - - 13.8 1005.9 0.6
02/12:53am NW 17 25 - - - - - - - 13.8 1005.9 0.6
02/12:34am NW 18 29 - - - - - - - 13.7 1005.8 0.6
02/12:32am NW 18 25 - - - - - - - 13.7 1005.8 0.6
02/12:30am NW 19 28 - - - - - - - 13.7 1005.7 0.6
02/12:10am NW 21 31 - - - - - - - 13.9 1005.9 0.6
02/12:00am NW 23 30 - - - - - - Recent precip. 13.9 1006.0 0.6
 
Date/Time
EST
Wind Sea
Height
m
Swell Vis
km
Cloud Weather Temp
°C
Press
MSL
hPa
Rain since
9am
mm
Dir  Spd
kts
Gust
kts
Height
m
Period
s
Dir
01/11:52pm NW 24 30 - - - - - - - 13.8 1006.1 0.6
01/11:33pm NW 22 35 - - - - - - - 13.4 1006.0 0.6
01/11:30pm NW 22 29 - - - - - - - 13.4 1006.1 0.6
01/11:25pm NW 22 29 - - - - - - - 13.3 1006.2 0.6
01/11:15pm NW 19 29 - - - - - - - 13.3 1006.5 0.6
01/11:00pm NW 21 28 - - - - - - - 13.5 1006.7 0.2
01/10:55pm WNW 21 29 - - - - - - - 13.6 1006.7 0.2
01/10:41pm NW 24 34 - - - - - - - 13.9 1006.8 0.2
01/10:38pm NW 26 34 - - - - - - - 13.9 1006.3 0.2
01/10:30pm NW 28 37 - - - - - - - 13.8 1005.6 0.2
01/10:24pm NW 26 37 - - - - - - - 13.8 1005.5 0.2
01/10:18pm NW 25 33 - - - - - - - 13.5 1005.7 0.0
01/10:00pm NW 25 36 - - - - - - - 13.5 1006.0 0.0
01/09:59pm NW 24 36 - - - - - - - 13.5 1006.0 0.0
01/09:55pm NW 23 32 - - - - - - - 13.5 1006.1 0.0
01/09:30pm NW 25 37 - - - - - - - 13.3 1006.2 0.0
01/09:00pm WNW 27 37 - - - - - - - 13.6 1006.4 0.0
01/08:30pm WNW 26 36 - - - - - - - 14.5 1006.1 0.0
01/08:00pm NW 28 44 - - - - - - - 15.4 1005.9 0.0
01/07:30pm NW 29 42 - - - - - - - 16.1 1006.1 0.0
01/07:00pm NW 28 39 - - - - - - - 15.9 1006.4 0.0
01/06:43pm NW 23 33 - - - - - - - 15.7 1006.6 0.0
01/06:30pm NW 22 31 - - - - - - - 15.2 1006.8 0.0
01/06:21pm NW 23 32 - - - - - - - 15.3 1006.9 0.0
01/06:00pm NW 24 36 - - - - - - - 15.3 1007.1 0.0
01/05:30pm NW 23 35 - - - - - - - 15.5 1007.5 0.0
01/05:21pm NW 23 33 - - - - - - - 15.6 1007.9 0.0
01/05:00pm NW 22 29 - - - - - - - 15.2 1008.0 0.0
01/04:55pm NW 21 29 - - - - - - - 15.2 1008.0 0.0
01/04:30pm NNW 22 32 - - - - - - - 15.2 1008.0 0.0
01/04:06pm NW 22 33 - - - - - - - 16.6 1008.2 0.0
01/04:04pm NW 21 30 - - - - - - - 16.6 1008.3 0.0
01/04:00pm NW 21 30 - - - - - - - 16.8 1008.3 0.0
01/03:30pm NW 24 36 - - - - - - - 16.8 1008.5 0.0
01/03:00pm NW 26 35 - - - - - - - 17.1 1008.6 0.0
01/02:30pm NW 28 44 - - - - - - - 16.8 1008.8 0.0
01/02:00pm NW 29 40 - - - - - - - 16.9 1009.3 0.0
01/01:30pm NW 25 36 - - - - - - - 16.9 1010.3 0.0
01/01:07pm NW 25 35 - - - - - - - 16.9 1011.0 0.0
01/01:00pm NW 26 33 - - - - - - - 17.4 1011.1 0.0
01/12:58pm NW 27 35 - - - - - - - 17.2 1011.2 0.0
01/12:30pm NW 22 37 - - - - - - - 17.4 1012.2 0.0
01/12:14pm NW 21 31 - - - - - - - 17.7 1012.6 0.0
01/12:10pm NW 20 29 - - - - - - - 17.8 1012.7 0.0
01/12:00pm NW 25 36 - - - - - - - 17.3 1012.9 0.0
01/11:30am NW 21 33 - - - - - - - 16.7 1013.8 0.0
01/11:20am NW 20 27 - - - - - - - 16.7 1014.0 0.0
01/11:08am NW 17 27 - - - - - - - 16.5 1014.3 0.0
01/11:06am NW 17 24 - - - - - - - 16.4 1014.4 0.0
01/11:00am NW 18 26 - - - - - - - 16.6 1014.6 0.0
01/10:30am NW 22 32 - - - - - - - 15.4 1015.2 0.0
01/10:28am NW 21 29 - - - - - - - 15.5 1015.3 0.0
01/10:18am NW 15 27 - - - - - - - 15.5 1015.6 0.0
01/10:00am NW 13 17 - - - - - - - 14.3 1016.0 0.0
01/09:30am NW 15 19 - - - - - - - 12.8 1016.4 0.0
01/09:00am NW 15 21 - - - - - - - 12.7 1017.0 0.0
01/08:30am NW 15 21 - - - - - - - 11.7 1017.2 0.0
01/08:00am NW 17 23 - - - - - - - 10.9 1017.7 0.0
01/07:30am NW 17 22 - - - - - - - 10.4 1017.7 0.0
01/07:00am NW 18 23 - - - - - - - 9.7 1017.9 0.0
01/06:30am NW 16 21 - - - - - - - 9.6 1018.1 0.0
01/06:00am NW 15 20 - - - - - - - 9.6 1018.6 0.0
01/05:30am NW 15 22 - - - - - - - 9.7 1018.7 0.0
01/05:00am NW 18 25 - - - - - - - 10.2 1018.9 0.0
01/04:30am NW 17 24 - - - - - - - 10.6 1019.4 0.0
01/04:00am NW 17 25 - - - - - - - 10.9 1019.9 0.0
01/03:30am NW 16 21 - - - - - - - 10.9 1020.1 0.0
01/03:00am NW 16 21 - - - - - - - 11.0 1020.6 0.0
01/02:30am NW 17 21 - - - - - - - 11.0 1021.1 0.0
01/02:00am NW 14 21 - - - - - - - 10.8 1021.7 0.0
01/01:30am NW 13 20 - - - - - - - 10.7 1022.0 0.0
01/01:00am WNW 15 20 - - - - - - - 10.5 1022.2 0.0
01/12:30am NW 18 24 - - - - - - - 10.6 1022.4 0.0
01/12:00am NW 18 24 - - - - - - - 10.7 1022.9 0.0
 
Date/Time
EST
Wind Sea
Height
m
Swell Vis
km
Cloud Weather Temp
°C
Press
MSL
hPa
Rain since
9am
mm
Dir  Spd
kts
Gust
kts
Height
m
Period
s
Dir
31/11:30pm WNW 15 20 - - - - - - - 10.8 1023.1 0.0
31/11:00pm NW 15 24 - - - - - - - 10.9 1023.6 0.0
31/10:30pm NW 17 21 - - - - - - - 10.8 1023.7 0.0
31/10:14pm NW 17 23 - - - - - - - 10.8 1023.9 0.0
31/10:00pm NW 19 29 - - - - - - - 10.7 1023.8 0.0
31/09:55pm WNW 19 29 - - - - - - - 10.7 1023.8 0.0
31/09:35pm WNW 15 23 - - - - - - - 10.7 1024.0 0.0
31/09:30pm WNW 16 25 - - - - - - - 10.7 1024.0 0.0
31/09:20pm NW 19 29 - - - - - - - 10.7 1024.0 0.0
31/09:00pm NW 19 26 - - - - - - - 10.7 1023.8 0.0
31/08:30pm WNW 19 28 - - - - - - - 10.7 1023.9 0.0
31/08:00pm WNW 22 31 - - - - - - - 10.7 1023.6 0.0
31/07:30pm WNW 18 26 - - - - - - - 10.7 1023.8 0.0
31/07:23pm NW 17 25 - - - - - - - 10.6 1023.9 0.0
31/07:12pm WNW 17 27 - - - - - - - 10.7 1024.0 0.0
31/07:00pm WNW 20 26 - - - - - - - 10.8 1023.8 0.0
31/06:30pm WNW 20 26 - - - - - - - 11.1 1023.7 0.0
31/06:12pm WNW 21 27 - - - - - - - 11.1 1023.5 0.0
31/06:00pm WNW 17 28 - - - - - - - 11.2 1023.6 0.0
31/05:30pm WNW 21 28 - - - - - - - 11.8 1023.7 0.0
31/05:00pm WNW 22 27 - - - - - - - 12.8 1023.8 0.0
31/04:30pm WNW 21 29 - - - - - - - 13.7 1023.8 0.0
31/04:00pm WNW 22 29 - - - - - - - 14.6 1024.0 0.0
31/03:31pm WNW 22 29 - - - - - - - 15.2 1024.1 0.0
31/03:30pm WNW 22 29 - - - - - - - 15.2 1024.1 0.0
31/03:18pm WNW 22 32 - - - - - - - 15.2 1023.9 0.0
31/03:00pm WNW 21 27 - - - - - - - 15.9 1024.3 0.0
31/02:30pm NW 17 25 - - - - - - - 16.7 1024.4 0.0
31/02:00pm NW 14 21 - - - - - - - 17.1 1024.9 0.0
31/01:30pm NW 12 17 - - - - - - - 18.3 1025.2 0.0
31/01:00pm NW 12 16 - - - - - - - 18.3 1025.7 0.0
31/12:30pm NW 11 16 - - - - - - - 18.3 1026.0 0.0
31/12:00pm NW 16 20 - - - - - - - 17.5 1026.3 0.0
31/11:30am NW 14 18 - - - - - - - 17.4 1026.5 0.0
31/11:00am NW 12 17 - - - - - - - 16.7 1026.7 0.0
31/10:30am WNW 13 17 - - - - - - - 15.7 1027.0 0.0
31/10:00am WNW 10 15 - - - - - - - 15.1 1027.2 0.0
31/09:30am W 11 15 - - - - - - - 13.8 1027.1 0.0
31/09:00am WNW 10 15 - - - - - - - 12.7 1027.2 0.0
31/08:30am NW 6 9 - - - - - - - 11.4 1027.3 0.0
31/08:00am W 1 5 - - - - - - - 10.4 1027.2 0.0
31/07:30am W 9 12 - - - - - - - 9.0 1026.9 0.0
31/07:00am WNW 6 9 - - - - - - - 8.5 1026.4 0.0
31/06:30am N 7 13 - - - - - - - 8.8 1026.1 0.0
31/06:00am WNW 18 23 - - - - - - - 8.9 1025.3 0.0
31/05:30am WNW 20 27 - - - - - - - 9.1 1025.1 0.0
31/05:00am WNW 21 27 - - - - - - - 9.2 1024.9 0.0

Other formats

Comma delimited format used in spreadsheet applications
http://www.bom.gov.au/fwo/IDT60701/IDT60701.94983.axf

JavaScript Object Notation format (JSON) in row-major order
http://www.bom.gov.au/fwo/IDT60701/IDT60701.94983.json

Data quality

Most of these data are generated automatically and are frequently updated. Quality checks on data are not normally performed. It is possible for incorrect values to appear. Refer to information at About Latest Weather Observations and please check the disclaimer before using these data.